sensor_id;sensor_type;location;lat;lon;timestamp;P1;durP1;ratioP1;P2;durP2;ratioP2
12129;SDS011;6128;59.340;18.040;2023-05-10T00:01:51;6.37;;;3.97;;
12129;SDS011;6128;59.340;18.040;2023-05-10T00:04:18;6.23;;;4.37;;
12129;SDS011;6128;59.340;18.040;2023-05-10T00:06:45;5.80;;;4.57;;
12129;SDS011;6128;59.340;18.040;2023-05-10T00:09:13;5.73;;;4.30;;
12129;SDS011;6128;59.340;18.040;2023-05-10T00:11:41;4.67;;;4.03;;
12129;SDS011;6128;59.340;18.040;2023-05-10T00:14:09;6.43;;;3.93;;
12129;SDS011;6128;59.340;18.040;2023-05-10T00:16:35;7.13;;;3.97;;
12129;SDS011;6128;59.340;18.040;2023-05-10T00:19:03;5.33;;;3.80;;
12129;SDS011;6128;59.340;18.040;2023-05-10T00:21:30;7.57;;;4.53;;
12129;SDS011;6128;59.340;18.040;2023-05-10T00:23:58;5.97;;;4.20;;
12129;SDS011;6128;59.340;18.040;2023-05-10T00:26:26;4.53;;;4.00;;
12129;SDS011;6128;59.340;18.040;2023-05-10T00:28:54;4.50;;;3.87;;
12129;SDS011;6128;59.340;18.040;2023-05-10T00:31:21;6.40;;;3.53;;
12129;SDS011;6128;59.340;18.040;2023-05-10T00:33:49;5.23;;;4.10;;
12129;SDS011;6128;59.340;18.040;2023-05-10T00:36:15;6.80;;;4.03;;
12129;SDS011;6128;59.340;18.040;2023-05-10T00:38:43;3.97;;;3.40;;
12129;SDS011;6128;59.340;18.040;2023-05-10T00:41:10;5.93;;;4.60;;
12129;SDS011;6128;59.340;18.040;2023-05-10T00:43:38;5.70;;;3.67;;
12129;SDS011;6128;59.340;18.040;2023-05-10T00:46:06;4.53;;;3.83;;
12129;SDS011;6128;59.340;18.040;2023-05-10T00:48:34;4.70;;;4.10;;
12129;SDS011;6128;59.340;18.040;2023-05-10T00:51:01;5.73;;;4.07;;
12129;SDS011;6128;59.340;18.040;2023-05-10T00:53:30;5.40;;;4.00;;
12129;SDS011;6128;59.340;18.040;2023-05-10T00:55:58;5.73;;;3.97;;
12129;SDS011;6128;59.340;18.040;2023-05-10T00:58:25;5.53;;;4.00;;
12129;SDS011;6128;59.340;18.040;2023-05-10T01:00:56;4.70;;;4.10;;
12129;SDS011;6128;59.340;18.040;2023-05-10T01:03:25;5.67;;;4.17;;
12129;SDS011;6128;59.340;18.040;2023-05-10T01:05:52;9.07;;;4.60;;
12129;SDS011;6128;59.340;18.040;2023-05-10T01:08:20;4.80;;;4.30;;
12129;SDS011;6128;59.340;18.040;2023-05-10T01:10:47;6.23;;;4.27;;
12129;SDS011;6128;59.340;18.040;2023-05-10T01:13:18;4.20;;;3.80;;
12129;SDS011;6128;59.340;18.040;2023-05-10T01:15:54;6.47;;;4.03;;
12129;SDS011;6128;59.340;18.040;2023-05-10T01:18:21;4.73;;;4.33;;
12129;SDS011;6128;59.340;18.040;2023-05-10T01:20:53;5.40;;;3.90;;
12129;SDS011;6128;59.340;18.040;2023-05-10T01:23:42;4.33;;;3.93;;
12129;SDS011;6128;59.340;18.040;2023-05-10T01:26:30;6.70;;;4.10;;
12129;SDS011;6128;59.340;18.040;2023-05-10T01:29:28;4.10;;;3.60;;
12129;SDS011;6128;59.340;18.040;2023-05-10T01:32:17;5.13;;;4.43;;
12129;SDS011;6128;59.340;18.040;2023-05-10T01:34:54;7.20;;;4.50;;
12129;SDS011;6128;59.340;18.040;2023-05-10T01:37:30;4.70;;;4.00;;
12129;SDS011;6128;59.340;18.040;2023-05-10T01:40:04;7.00;;;4.47;;
12129;SDS011;6128;59.340;18.040;2023-05-10T01:42:39;6.03;;;3.97;;
12129;SDS011;6128;59.340;18.040;2023-05-10T01:45:14;4.50;;;4.10;;
12129;SDS011;6128;59.340;18.040;2023-05-10T01:47:49;4.97;;;4.47;;
12129;SDS011;6128;59.340;18.040;2023-05-10T01:50:22;4.33;;;4.03;;
12129;SDS011;6128;59.340;18.040;2023-05-10T01:52:56;5.13;;;4.60;;
12129;SDS011;6128;59.340;18.040;2023-05-10T01:55:26;5.47;;;4.00;;
12129;SDS011;6128;59.340;18.040;2023-05-10T01:57:58;5.83;;;4.10;;
12129;SDS011;6128;59.340;18.040;2023-05-10T02:00:29;5.27;;;4.27;;
12129;SDS011;6128;59.340;18.040;2023-05-10T02:02:58;5.60;;;4.77;;
12129;SDS011;6128;59.340;18.040;2023-05-10T02:05:30;5.20;;;4.17;;
12129;SDS011;6128;59.340;18.040;2023-05-10T02:07:59;6.07;;;4.50;;
12129;SDS011;6128;59.340;18.040;2023-05-10T02:10:27;5.00;;;4.60;;
12129;SDS011;6128;59.340;18.040;2023-05-10T02:12:55;8.00;;;4.70;;
12129;SDS011;6128;59.340;18.040;2023-05-10T02:15:26;4.63;;;4.23;;
12129;SDS011;6128;59.340;18.040;2023-05-10T02:17:54;5.03;;;4.53;;
12129;SDS011;6128;59.340;18.040;2023-05-10T02:20:24;5.60;;;4.83;;
12129;SDS011;6128;59.340;18.040;2023-05-10T02:22:53;10.00;;;5.63;;
12129;SDS011;6128;59.340;18.040;2023-05-10T02:25:22;8.33;;;4.83;;
12129;SDS011;6128;59.340;18.040;2023-05-10T02:27:51;5.33;;;4.27;;
12129;SDS011;6128;59.340;18.040;2023-05-10T02:30:21;6.53;;;4.80;;
12129;SDS011;6128;59.340;18.040;2023-05-10T02:32:49;8.53;;;4.60;;
12129;SDS011;6128;59.340;18.040;2023-05-10T02:35:17;5.23;;;4.47;;
12129;SDS011;6128;59.340;18.040;2023-05-10T02:37:47;6.27;;;5.33;;
12129;SDS011;6128;59.340;18.040;2023-05-10T02:40:15;5.10;;;4.60;;
12129;SDS011;6128;59.340;18.040;2023-05-10T02:42:44;4.93;;;4.53;;
12129;SDS011;6128;59.340;18.040;2023-05-10T02:45:14;6.40;;;4.73;;
12129;SDS011;6128;59.340;18.040;2023-05-10T02:47:45;5.00;;;4.50;;
12129;SDS011;6128;59.340;18.040;2023-05-10T02:50:13;5.07;;;4.50;;
12129;SDS011;6128;59.340;18.040;2023-05-10T02:52:40;5.00;;;4.60;;
12129;SDS011;6128;59.340;18.040;2023-05-10T02:55:14;6.37;;;5.10;;
12129;SDS011;6128;59.340;18.040;2023-05-10T02:57:43;5.33;;;4.23;;
12129;SDS011;6128;59.340;18.040;2023-05-10T03:00:17;5.67;;;5.10;;
12129;SDS011;6128;59.340;18.040;2023-05-10T03:02:44;5.00;;;4.43;;
12129;SDS011;6128;59.340;18.040;2023-05-10T03:05:12;6.50;;;4.80;;
12129;SDS011;6128;59.340;18.040;2023-05-10T03:07:39;5.10;;;4.47;;
12129;SDS011;6128;59.340;18.040;2023-05-10T03:10:07;6.07;;;4.60;;
12129;SDS011;6128;59.340;18.040;2023-05-10T03:12:41;5.60;;;4.67;;
12129;SDS011;6128;59.340;18.040;2023-05-10T03:15:25;5.73;;;4.70;;
12129;SDS011;6128;59.340;18.040;2023-05-10T03:18:04;5.67;;;4.73;;
12129;SDS011;6128;59.340;18.040;2023-05-10T03:20:36;5.03;;;4.40;;
12129;SDS011;6128;59.340;18.040;2023-05-10T03:23:09;5.10;;;4.60;;
12129;SDS011;6128;59.340;18.040;2023-05-10T03:25:39;7.17;;;4.70;;
12129;SDS011;6128;59.340;18.040;2023-05-10T03:28:10;7.50;;;4.70;;
12129;SDS011;6128;59.340;18.040;2023-05-10T03:30:38;6.10;;;4.80;;
12129;SDS011;6128;59.340;18.040;2023-05-10T03:33:07;7.10;;;4.80;;
12129;SDS011;6128;59.340;18.040;2023-05-10T03:35:34;6.63;;;4.63;;
12129;SDS011;6128;59.340;18.040;2023-05-10T03:38:01;4.50;;;4.10;;
12129;SDS011;6128;59.340;18.040;2023-05-10T03:40:28;6.57;;;4.30;;
12129;SDS011;6128;59.340;18.040;2023-05-10T03:42:57;7.13;;;4.70;;
12129;SDS011;6128;59.340;18.040;2023-05-10T03:45:25;6.13;;;4.50;;
12129;SDS011;6128;59.340;18.040;2023-05-10T03:47:52;5.20;;;4.73;;
12129;SDS011;6128;59.340;18.040;2023-05-10T03:50:20;5.33;;;4.27;;
12129;SDS011;6128;59.340;18.040;2023-05-10T03:52:47;8.23;;;4.80;;
12129;SDS011;6128;59.340;18.040;2023-05-10T03:55:14;5.97;;;4.90;;
12129;SDS011;6128;59.340;18.040;2023-05-10T03:57:42;6.90;;;4.67;;
12129;SDS011;6128;59.340;18.040;2023-05-10T04:00:10;7.53;;;4.77;;
12129;SDS011;6128;59.340;18.040;2023-05-10T04:02:39;6.80;;;4.77;;
12129;SDS011;6128;59.340;18.040;2023-05-10T04:05:06;7.70;;;4.73;;
12129;SDS011;6128;59.340;18.040;2023-05-10T04:07:34;4.73;;;4.13;;
12129;SDS011;6128;59.340;18.040;2023-05-10T04:10:01;6.40;;;4.40;;
12129;SDS011;6128;59.340;18.040;2023-05-10T04:12:29;6.83;;;4.53;;
12129;SDS011;6128;59.340;18.040;2023-05-10T04:14:56;7.43;;;4.43;;
12129;SDS011;6128;59.340;18.040;2023-05-10T04:17:23;10.53;;;4.43;;
12129;SDS011;6128;59.340;18.040;2023-05-10T04:19:52;7.13;;;4.57;;
12129;SDS011;6128;59.340;18.040;2023-05-10T04:22:19;4.40;;;4.00;;
12129;SDS011;6128;59.340;18.040;2023-05-10T04:24:46;4.37;;;3.80;;
12129;SDS011;6128;59.340;18.040;2023-05-10T04:27:13;3.93;;;3.63;;
12129;SDS011;6128;59.340;18.040;2023-05-10T04:29:41;8.77;;;4.10;;
12129;SDS011;6128;59.340;18.040;2023-05-10T04:32:09;6.67;;;3.60;;
12129;SDS011;6128;59.340;18.040;2023-05-10T04:34:37;4.40;;;4.00;;
12129;SDS011;6128;59.340;18.040;2023-05-10T04:37:10;4.13;;;3.73;;
12129;SDS011;6128;59.340;18.040;2023-05-10T04:39:37;7.30;;;3.80;;
12129;SDS011;6128;59.340;18.040;2023-05-10T04:42:04;6.87;;;4.53;;
12129;SDS011;6128;59.340;18.040;2023-05-10T04:44:32;5.63;;;3.90;;
12129;SDS011;6128;59.340;18.040;2023-05-10T04:46:59;4.30;;;3.90;;
12129;SDS011;6128;59.340;18.040;2023-05-10T04:49:27;4.60;;;3.47;;
12129;SDS011;6128;59.340;18.040;2023-05-10T04:51:54;4.73;;;3.50;;
12129;SDS011;6128;59.340;18.040;2023-05-10T04:54:24;4.90;;;3.50;;
12129;SDS011;6128;59.340;18.040;2023-05-10T04:56:51;7.93;;;3.83;;
12129;SDS011;6128;59.340;18.040;2023-05-10T04:59:18;4.87;;;3.47;;
12129;SDS011;6128;59.340;18.040;2023-05-10T05:01:46;3.60;;;3.30;;
12129;SDS011;6128;59.340;18.040;2023-05-10T05:04:13;3.77;;;3.30;;
12129;SDS011;6128;59.340;18.040;2023-05-10T05:06:41;3.77;;;3.20;;
12129;SDS011;6128;59.340;18.040;2023-05-10T05:09:08;4.43;;;3.10;;
12129;SDS011;6128;59.340;18.040;2023-05-10T05:11:36;4.37;;;3.30;;
12129;SDS011;6128;59.340;18.040;2023-05-10T05:14:04;4.03;;;2.50;;
12129;SDS011;6128;59.340;18.040;2023-05-10T05:16:31;4.13;;;3.23;;
12129;SDS011;6128;59.340;18.040;2023-05-10T05:18:59;7.27;;;3.20;;
12129;SDS011;6128;59.340;18.040;2023-05-10T05:21:26;4.60;;;2.93;;
12129;SDS011;6128;59.340;18.040;2023-05-10T05:23:54;5.50;;;2.70;;
12129;SDS011;6128;59.340;18.040;2023-05-10T05:26:21;8.30;;;2.90;;
12129;SDS011;6128;59.340;18.040;2023-05-10T05:28:49;4.60;;;2.90;;
12129;SDS011;6128;59.340;18.040;2023-05-10T05:31:19;4.87;;;3.10;;
12129;SDS011;6128;59.340;18.040;2023-05-10T05:33:46;7.27;;;2.70;;
12129;SDS011;6128;59.340;18.040;2023-05-10T05:36:13;5.50;;;2.90;;
12129;SDS011;6128;59.340;18.040;2023-05-10T05:38:40;3.93;;;3.10;;
12129;SDS011;6128;59.340;18.040;2023-05-10T05:41:08;4.97;;;3.13;;
12129;SDS011;6128;59.340;18.040;2023-05-10T05:43:35;3.90;;;3.30;;
12129;SDS011;6128;59.340;18.040;2023-05-10T05:46:04;6.17;;;2.93;;
12129;SDS011;6128;59.340;18.040;2023-05-10T05:48:31;3.50;;;2.57;;
12129;SDS011;6128;59.340;18.040;2023-05-10T05:50:58;5.93;;;2.77;;
12129;SDS011;6128;59.340;18.040;2023-05-10T05:53:25;5.27;;;2.97;;
12129;SDS011;6128;59.340;18.040;2023-05-10T05:55:52;8.33;;;3.40;;
12129;SDS011;6128;59.340;18.040;2023-05-10T05:58:20;6.33;;;3.13;;
12129;SDS011;6128;59.340;18.040;2023-05-10T06:00:47;2.50;;;2.30;;
12129;SDS011;6128;59.340;18.040;2023-05-10T06:03:16;3.90;;;2.40;;
12129;SDS011;6128;59.340;18.040;2023-05-10T06:05:43;4.03;;;2.33;;
12129;SDS011;6128;59.340;18.040;2023-05-10T06:08:10;4.93;;;2.57;;
12129;SDS011;6128;59.340;18.040;2023-05-10T06:10:37;5.60;;;2.90;;
12129;SDS011;6128;59.340;18.040;2023-05-10T06:13:05;4.87;;;2.50;;
12129;SDS011;6128;59.340;18.040;2023-05-10T06:15:32;2.43;;;2.20;;
12129;SDS011;6128;59.340;18.040;2023-05-10T06:17:59;4.30;;;2.40;;
12129;SDS011;6128;59.340;18.040;2023-05-10T06:20:28;7.87;;;2.70;;
12129;SDS011;6128;59.340;18.040;2023-05-10T06:22:56;3.73;;;2.43;;
12129;SDS011;6128;59.340;18.040;2023-05-10T06:25:23;4.70;;;2.22;;
12129;SDS011;6128;59.340;18.040;2023-05-10T06:27:50;3.42;;;2.45;;
12129;SDS011;6128;59.340;18.040;2023-05-10T06:30:22;4.93;;;2.25;;
12129;SDS011;6128;59.340;18.040;2023-05-10T06:32:52;5.30;;;2.40;;
12129;SDS011;6128;59.340;18.040;2023-05-10T06:35:20;5.65;;;2.42;;
12129;SDS011;6128;59.340;18.040;2023-05-10T06:37:49;6.07;;;2.40;;
12129;SDS011;6128;59.340;18.040;2023-05-10T06:40:16;8.27;;;2.47;;
12129;SDS011;6128;59.340;18.040;2023-05-10T06:42:43;7.47;;;2.58;;
12129;SDS011;6128;59.340;18.040;2023-05-10T06:45:11;5.38;;;2.50;;
12129;SDS011;6128;59.340;18.040;2023-05-10T06:47:39;5.35;;;2.15;;
12129;SDS011;6128;59.340;18.040;2023-05-10T06:50:06;3.88;;;2.00;;
12129;SDS011;6128;59.340;18.040;2023-05-10T06:52:34;2.22;;;1.98;;
12129;SDS011;6128;59.340;18.040;2023-05-10T06:55:03;4.85;;;2.38;;
12129;SDS011;6128;59.340;18.040;2023-05-10T06:57:31;2.92;;;2.15;;
12129;SDS011;6128;59.340;18.040;2023-05-10T06:59:58;2.40;;;2.20;;
12129;SDS011;6128;59.340;18.040;2023-05-10T07:02:25;6.47;;;2.20;;
12129;SDS011;6128;59.340;18.040;2023-05-10T07:04:52;17.77;;;6.30;;
12129;SDS011;6128;59.340;18.040;2023-05-10T07:07:19;5.90;;;2.00;;
12129;SDS011;6128;59.340;18.040;2023-05-10T07:09:46;3.60;;;2.05;;
12129;SDS011;6128;59.340;18.040;2023-05-10T07:12:16;4.15;;;2.65;;
12129;SDS011;6128;59.340;18.040;2023-05-10T07:14:43;6.25;;;2.25;;
12129;SDS011;6128;59.340;18.040;2023-05-10T07:17:10;4.30;;;1.98;;
12129;SDS011;6128;59.340;18.040;2023-05-10T07:19:41;5.30;;;1.90;;
12129;SDS011;6128;59.340;18.040;2023-05-10T07:22:08;6.68;;;2.78;;
12129;SDS011;6128;59.340;18.040;2023-05-10T07:24:36;4.55;;;2.75;;
12129;SDS011;6128;59.340;18.040;2023-05-10T07:27:03;5.20;;;2.70;;
12129;SDS011;6128;59.340;18.040;2023-05-10T07:29:36;4.93;;;2.55;;
12129;SDS011;6128;59.340;18.040;2023-05-10T07:32:04;6.82;;;2.33;;
12129;SDS011;6128;59.340;18.040;2023-05-10T07:34:32;5.72;;;2.03;;
12129;SDS011;6128;59.340;18.040;2023-05-10T07:36:59;4.30;;;2.28;;
12129;SDS011;6128;59.340;18.040;2023-05-10T07:39:27;3.78;;;2.00;;
12129;SDS011;6128;59.340;18.040;2023-05-10T07:41:54;2.78;;;1.85;;
12129;SDS011;6128;59.340;18.040;2023-05-10T07:44:22;3.53;;;1.83;;
12129;SDS011;6128;59.340;18.040;2023-05-10T07:46:50;2.25;;;2.00;;
12129;SDS011;6128;59.340;18.040;2023-05-10T07:49:18;5.07;;;2.00;;
12129;SDS011;6128;59.340;18.040;2023-05-10T07:51:45;4.65;;;2.35;;
12129;SDS011;6128;59.340;18.040;2023-05-10T07:54:12;1.77;;;1.60;;
12129;SDS011;6128;59.340;18.040;2023-05-10T07:56:39;5.18;;;2.10;;
12129;SDS011;6128;59.340;18.040;2023-05-10T07:59:14;7.57;;;1.95;;
12129;SDS011;6128;59.340;18.040;2023-05-10T08:01:42;2.88;;;2.03;;
12129;SDS011;6128;59.340;18.040;2023-05-10T08:04:11;5.15;;;2.20;;
12129;SDS011;6128;59.340;18.040;2023-05-10T08:06:38;4.10;;;2.00;;
12129;SDS011;6128;59.340;18.040;2023-05-10T08:09:06;3.75;;;1.98;;
12129;SDS011;6128;59.340;18.040;2023-05-10T08:11:33;8.00;;;2.13;;
12129;SDS011;6128;59.340;18.040;2023-05-10T08:14:00;3.97;;;2.38;;
12129;SDS011;6128;59.340;18.040;2023-05-10T08:16:28;4.85;;;2.25;;
12129;SDS011;6128;59.340;18.040;2023-05-10T08:18:55;2.05;;;1.85;;
12129;SDS011;6128;59.340;18.040;2023-05-10T08:21:23;2.67;;;1.77;;
12129;SDS011;6128;59.340;18.040;2023-05-10T08:23:51;5.85;;;2.42;;
12129;SDS011;6128;59.340;18.040;2023-05-10T08:26:18;2.60;;;1.70;;
12129;SDS011;6128;59.340;18.040;2023-05-10T08:28:46;5.10;;;1.90;;
12129;SDS011;6128;59.340;18.040;2023-05-10T08:31:13;3.03;;;2.15;;
12129;SDS011;6128;59.340;18.040;2023-05-10T08:33:41;3.47;;;2.10;;
12129;SDS011;6128;59.340;18.040;2023-05-10T08:36:08;3.45;;;2.10;;
12129;SDS011;6128;59.340;18.040;2023-05-10T08:38:37;6.28;;;2.35;;
12129;SDS011;6128;59.340;18.040;2023-05-10T08:41:04;9.57;;;4.78;;
12129;SDS011;6128;59.340;18.040;2023-05-10T08:43:32;70.28;;;9.10;;
12129;SDS011;6128;59.340;18.040;2023-05-10T08:46:00;4.50;;;2.33;;
12129;SDS011;6128;59.340;18.040;2023-05-10T08:48:28;6.53;;;2.40;;
12129;SDS011;6128;59.340;18.040;2023-05-10T08:50:56;4.47;;;2.25;;
12129;SDS011;6128;59.340;18.040;2023-05-10T08:53:25;3.53;;;2.30;;
12129;SDS011;6128;59.340;18.040;2023-05-10T08:55:56;3.22;;;2.00;;
12129;SDS011;6128;59.340;18.040;2023-05-10T08:58:23;5.05;;;2.22;;
12129;SDS011;6128;59.340;18.040;2023-05-10T09:00:51;10.30;;;3.38;;
12129;SDS011;6128;59.340;18.040;2023-05-10T09:03:19;7.70;;;2.05;;
12129;SDS011;6128;59.340;18.040;2023-05-10T09:05:46;6.60;;;2.40;;
12129;SDS011;6128;59.340;18.040;2023-05-10T09:08:13;3.95;;;1.73;;
12129;SDS011;6128;59.340;18.040;2023-05-10T09:10:42;4.75;;;2.40;;
12129;SDS011;6128;59.340;18.040;2023-05-10T09:13:14;4.72;;;2.03;;
12129;SDS011;6128;59.340;18.040;2023-05-10T09:15:42;4.13;;;2.30;;
12129;SDS011;6128;59.340;18.040;2023-05-10T09:18:10;3.15;;;2.38;;
12129;SDS011;6128;59.340;18.040;2023-05-10T09:20:38;5.05;;;2.35;;
12129;SDS011;6128;59.340;18.040;2023-05-10T09:23:05;7.50;;;2.58;;
12129;SDS011;6128;59.340;18.040;2023-05-10T09:25:32;3.20;;;2.10;;
12129;SDS011;6128;59.340;18.040;2023-05-10T09:28:00;12.93;;;3.25;;
12129;SDS011;6128;59.340;18.040;2023-05-10T09:30:29;5.82;;;2.03;;
12129;SDS011;6128;59.340;18.040;2023-05-10T09:32:58;7.70;;;2.28;;
12129;SDS011;6128;59.340;18.040;2023-05-10T09:35:26;5.68;;;2.05;;
12129;SDS011;6128;59.340;18.040;2023-05-10T09:37:55;2.70;;;1.90;;
12129;SDS011;6128;59.340;18.040;2023-05-10T09:40:23;6.33;;;2.20;;
12129;SDS011;6128;59.340;18.040;2023-05-10T09:42:52;4.90;;;2.30;;
12129;SDS011;6128;59.340;18.040;2023-05-10T09:45:20;4.73;;;2.00;;
12129;SDS011;6128;59.340;18.040;2023-05-10T09:47:50;6.43;;;2.53;;
12129;SDS011;6128;59.340;18.040;2023-05-10T09:50:18;4.07;;;2.27;;
12129;SDS011;6128;59.340;18.040;2023-05-10T09:52:46;3.80;;;2.10;;
12129;SDS011;6128;59.340;18.040;2023-05-10T09:55:15;4.20;;;2.57;;
12129;SDS011;6128;59.340;18.040;2023-05-10T09:57:43;4.17;;;2.30;;
12129;SDS011;6128;59.340;18.040;2023-05-10T10:00:12;5.40;;;2.30;;
12129;SDS011;6128;59.340;18.040;2023-05-10T10:02:45;5.60;;;2.17;;
12129;SDS011;6128;59.340;18.040;2023-05-10T10:05:14;7.43;;;2.10;;
12129;SDS011;6128;59.340;18.040;2023-05-10T10:07:42;11.27;;;2.90;;
12129;SDS011;6128;59.340;18.040;2023-05-10T10:10:09;5.23;;;2.10;;
12129;SDS011;6128;59.340;18.040;2023-05-10T10:12:40;3.30;;;2.00;;
12129;SDS011;6128;59.340;18.040;2023-05-10T10:15:08;4.43;;;2.23;;
12129;SDS011;6128;59.340;18.040;2023-05-10T10:17:35;6.17;;;2.50;;
12129;SDS011;6128;59.340;18.040;2023-05-10T10:20:04;8.13;;;2.30;;
12129;SDS011;6128;59.340;18.040;2023-05-10T10:22:34;5.23;;;2.30;;
12129;SDS011;6128;59.340;18.040;2023-05-10T10:25:03;2.67;;;2.10;;
12129;SDS011;6128;59.340;18.040;2023-05-10T10:27:34;3.40;;;2.13;;
12129;SDS011;6128;59.340;18.040;2023-05-10T10:30:12;10.80;;;2.40;;
12129;SDS011;6128;59.340;18.040;2023-05-10T10:32:55;5.07;;;2.03;;
12129;SDS011;6128;59.340;18.040;2023-05-10T10:35:34;2.30;;;1.70;;
12129;SDS011;6128;59.340;18.040;2023-05-10T10:38:03;4.17;;;2.60;;
12129;SDS011;6128;59.340;18.040;2023-05-10T10:40:34;2.50;;;2.00;;
12129;SDS011;6128;59.340;18.040;2023-05-10T10:46:11;5.03;;;2.60;;
12129;SDS011;6128;59.340;18.040;2023-05-10T10:48:39;3.40;;;1.70;;
12129;SDS011;6128;59.340;18.040;2023-05-10T10:51:07;3.53;;;1.80;;
12129;SDS011;6128;59.340;18.040;2023-05-10T10:53:35;3.70;;;2.00;;
12129;SDS011;6128;59.340;18.040;2023-05-10T10:56:06;2.20;;;2.00;;
12129;SDS011;6128;59.340;18.040;2023-05-10T10:58:34;4.07;;;2.20;;
12129;SDS011;6128;59.340;18.040;2023-05-10T11:01:09;6.23;;;2.50;;
12129;SDS011;6128;59.340;18.040;2023-05-10T11:03:38;6.27;;;2.40;;
12129;SDS011;6128;59.340;18.040;2023-05-10T11:06:05;3.00;;;2.03;;
12129;SDS011;6128;59.340;18.040;2023-05-10T11:08:34;5.73;;;2.43;;
12129;SDS011;6128;59.340;18.040;2023-05-10T11:11:09;3.83;;;2.30;;
12129;SDS011;6128;59.340;18.040;2023-05-10T11:13:41;3.00;;;1.70;;
12129;SDS011;6128;59.340;18.040;2023-05-10T11:16:12;6.40;;;2.17;;
12129;SDS011;6128;59.340;18.040;2023-05-10T11:18:51;5.77;;;2.30;;
12129;SDS011;6128;59.340;18.040;2023-05-10T11:21:20;4.07;;;2.30;;
12129;SDS011;6128;59.340;18.040;2023-05-10T11:23:49;5.30;;;2.50;;
12129;SDS011;6128;59.340;18.040;2023-05-10T11:26:17;4.20;;;2.10;;
12129;SDS011;6128;59.340;18.040;2023-05-10T11:28:48;5.57;;;2.20;;
12129;SDS011;6128;59.340;18.040;2023-05-10T11:31:17;7.33;;;2.20;;
12129;SDS011;6128;59.340;18.040;2023-05-10T11:33:45;4.50;;;2.10;;
12129;SDS011;6128;59.340;18.040;2023-05-10T11:36:14;5.43;;;2.00;;
12129;SDS011;6128;59.340;18.040;2023-05-10T11:38:42;3.07;;;2.20;;
12129;SDS011;6128;59.340;18.040;2023-05-10T11:41:12;5.73;;;2.00;;
12129;SDS011;6128;59.340;18.040;2023-05-10T11:43:39;4.97;;;2.03;;
12129;SDS011;6128;59.340;18.040;2023-05-10T11:46:07;2.83;;;1.70;;
12129;SDS011;6128;59.340;18.040;2023-05-10T11:48:36;2.40;;;1.83;;
12129;SDS011;6128;59.340;18.040;2023-05-10T11:51:05;3.53;;;1.80;;
12129;SDS011;6128;59.340;18.040;2023-05-10T11:53:33;7.00;;;2.73;;
12129;SDS011;6128;59.340;18.040;2023-05-10T11:56:03;6.63;;;2.40;;
12129;SDS011;6128;59.340;18.040;2023-05-10T11:58:33;3.57;;;1.97;;
12129;SDS011;6128;59.340;18.040;2023-05-10T12:01:01;2.30;;;1.70;;
12129;SDS011;6128;59.340;18.040;2023-05-10T12:03:29;6.93;;;2.30;;
12129;SDS011;6128;59.340;18.040;2023-05-10T12:05:57;5.67;;;2.47;;
12129;SDS011;6128;59.340;18.040;2023-05-10T12:08:26;5.53;;;2.47;;
12129;SDS011;6128;59.340;18.040;2023-05-10T12:11:04;5.50;;;2.40;;
12129;SDS011;6128;59.340;18.040;2023-05-10T12:13:36;5.53;;;2.50;;
12129;SDS011;6128;59.340;18.040;2023-05-10T12:16:15;4.00;;;2.03;;
12129;SDS011;6128;59.340;18.040;2023-05-10T12:18:43;2.90;;;1.80;;
12129;SDS011;6128;59.340;18.040;2023-05-10T12:21:10;2.97;;;2.07;;
12129;SDS011;6128;59.340;18.040;2023-05-10T12:23:38;5.07;;;2.10;;
12129;SDS011;6128;59.340;18.040;2023-05-10T12:26:05;4.80;;;1.97;;
12129;SDS011;6128;59.340;18.040;2023-05-10T12:28:36;4.93;;;2.30;;
12129;SDS011;6128;59.340;18.040;2023-05-10T12:31:05;4.90;;;2.23;;
12129;SDS011;6128;59.340;18.040;2023-05-10T12:33:35;4.23;;;1.90;;
12129;SDS011;6128;59.340;18.040;2023-05-10T12:36:04;6.00;;;1.97;;
12129;SDS011;6128;59.340;18.040;2023-05-10T12:38:32;6.77;;;2.00;;
12129;SDS011;6128;59.340;18.040;2023-05-10T12:41:03;3.70;;;1.77;;
12129;SDS011;6128;59.340;18.040;2023-05-10T12:43:32;3.93;;;2.10;;
12129;SDS011;6128;59.340;18.040;2023-05-10T12:46:05;6.10;;;2.10;;
12129;SDS011;6128;59.340;18.040;2023-05-10T12:48:33;2.30;;;1.77;;
12129;SDS011;6128;59.340;18.040;2023-05-10T12:51:01;14.10;;;3.43;;
12129;SDS011;6128;59.340;18.040;2023-05-10T12:53:28;4.07;;;1.87;;
12129;SDS011;6128;59.340;18.040;2023-05-10T12:55:56;5.20;;;2.13;;
12129;SDS011;6128;59.340;18.040;2023-05-10T12:58:23;2.07;;;1.50;;
12129;SDS011;6128;59.340;18.040;2023-05-10T13:00:50;4.77;;;2.00;;
12129;SDS011;6128;59.340;18.040;2023-05-10T13:03:19;3.07;;;2.17;;
12129;SDS011;6128;59.340;18.040;2023-05-10T13:05:46;3.43;;;1.80;;
12129;SDS011;6128;59.340;18.040;2023-05-10T13:08:13;2.23;;;1.50;;
12129;SDS011;6128;59.340;18.040;2023-05-10T13:10:41;4.30;;;1.80;;
12129;SDS011;6128;59.340;18.040;2023-05-10T13:13:08;10.57;;;2.37;;
12129;SDS011;6128;59.340;18.040;2023-05-10T13:15:35;6.17;;;1.93;;
12129;SDS011;6128;59.340;18.040;2023-05-10T13:18:03;3.37;;;2.00;;
12129;SDS011;6128;59.340;18.040;2023-05-10T13:20:31;1.83;;;1.43;;
12129;SDS011;6128;59.340;18.040;2023-05-10T13:22:58;4.50;;;1.63;;
12129;SDS011;6128;59.340;18.040;2023-05-10T13:25:26;2.90;;;1.77;;
12129;SDS011;6128;59.340;18.040;2023-05-10T13:27:53;4.37;;;2.17;;
12129;SDS011;6128;59.340;18.040;2023-05-10T13:30:20;3.33;;;1.60;;
12129;SDS011;6128;59.340;18.040;2023-05-10T13:32:48;2.73;;;1.80;;
12129;SDS011;6128;59.340;18.040;2023-05-10T13:35:17;4.37;;;1.50;;
12129;SDS011;6128;59.340;18.040;2023-05-10T13:37:45;3.47;;;1.60;;
12129;SDS011;6128;59.340;18.040;2023-05-10T13:40:12;2.97;;;1.60;;
12129;SDS011;6128;59.340;18.040;2023-05-10T13:42:40;2.93;;;1.80;;
12129;SDS011;6128;59.340;18.040;2023-05-10T13:45:08;5.50;;;2.30;;
12129;SDS011;6128;59.340;18.040;2023-05-10T13:47:37;2.90;;;1.80;;
12129;SDS011;6128;59.340;18.040;2023-05-10T13:50:04;3.87;;;2.07;;
12129;SDS011;6128;59.340;18.040;2023-05-10T13:52:32;5.83;;;1.80;;
12129;SDS011;6128;59.340;18.040;2023-05-10T13:55:00;3.03;;;1.33;;
12129;SDS011;6128;59.340;18.040;2023-05-10T13:57:27;1.90;;;1.67;;
12129;SDS011;6128;59.340;18.040;2023-05-10T13:59:55;4.10;;;1.90;;
12129;SDS011;6128;59.340;18.040;2023-05-10T14:02:23;1.80;;;1.70;;
12129;SDS011;6128;59.340;18.040;2023-05-10T14:04:52;2.43;;;1.40;;
12129;SDS011;6128;59.340;18.040;2023-05-10T14:07:19;2.63;;;1.90;;
12129;SDS011;6128;59.340;18.040;2023-05-10T14:09:46;2.47;;;1.80;;
12129;SDS011;6128;59.340;18.040;2023-05-10T14:12:15;3.63;;;1.63;;
12129;SDS011;6128;59.340;18.040;2023-05-10T14:14:42;2.27;;;1.50;;
12129;SDS011;6128;59.340;18.040;2023-05-10T14:17:10;3.33;;;1.40;;
12129;SDS011;6128;59.340;18.040;2023-05-10T14:19:37;3.63;;;1.60;;
12129;SDS011;6128;59.340;18.040;2023-05-10T14:22:04;5.30;;;2.40;;
12129;SDS011;6128;59.340;18.040;2023-05-10T14:24:32;1.73;;;1.50;;
12129;SDS011;6128;59.340;18.040;2023-05-10T14:26:59;2.37;;;1.60;;
12129;SDS011;6128;59.340;18.040;2023-05-10T14:29:27;1.70;;;1.40;;
12129;SDS011;6128;59.340;18.040;2023-05-10T14:31:55;2.70;;;1.50;;
12129;SDS011;6128;59.340;18.040;2023-05-10T14:34:22;3.60;;;1.63;;
12129;SDS011;6128;59.340;18.040;2023-05-10T14:36:49;2.43;;;1.47;;
12129;SDS011;6128;59.340;18.040;2023-05-10T14:39:16;2.23;;;1.47;;
12129;SDS011;6128;59.340;18.040;2023-05-10T14:41:43;1.90;;;1.50;;
12129;SDS011;6128;59.340;18.040;2023-05-10T14:44:12;3.57;;;1.67;;
12129;SDS011;6128;59.340;18.040;2023-05-10T14:46:41;2.80;;;1.37;;
12129;SDS011;6128;59.340;18.040;2023-05-10T14:49:08;3.10;;;1.93;;
12129;SDS011;6128;59.340;18.040;2023-05-10T14:51:36;4.13;;;1.60;;
12129;SDS011;6128;59.340;18.040;2023-05-10T14:54:03;2.17;;;1.73;;
12129;SDS011;6128;59.340;18.040;2023-05-10T14:56:31;2.30;;;1.47;;
12129;SDS011;6128;59.340;18.040;2023-05-10T14:58:58;1.97;;;1.50;;
12129;SDS011;6128;59.340;18.040;2023-05-10T15:01:25;3.17;;;1.80;;